sensor_id;sensor_type;location;lat;lon;timestamp;P1;durP1;ratioP1;P2;durP2;ratioP2
8151;SDS011;4117;53.622;9.958;2023-06-10T00:01:24;1.53;;;1.00;;
8151;SDS011;4117;53.622;9.958;2023-06-10T00:03:54;1.60;;;1.00;;
8151;SDS011;4117;53.622;9.958;2023-06-10T00:06:21;1.30;;;0.93;;
8151;SDS011;4117;53.622;9.958;2023-06-10T00:08:49;1.27;;;0.87;;
8151;SDS011;4117;53.622;9.958;2023-06-10T00:11:16;2.63;;;1.00;;
8151;SDS011;4117;53.622;9.958;2023-06-10T00:13:43;3.00;;;0.90;;
8151;SDS011;4117;53.622;9.958;2023-06-10T00:16:10;1.57;;;1.03;;
8151;SDS011;4117;53.622;9.958;2023-06-10T00:18:37;1.03;;;0.87;;
8151;SDS011;4117;53.622;9.958;2023-06-10T00:21:05;2.60;;;0.90;;
8151;SDS011;4117;53.622;9.958;2023-06-10T00:23:32;1.23;;;0.90;;
8151;SDS011;4117;53.622;9.958;2023-06-10T00:26:02;2.53;;;1.07;;
8151;SDS011;4117;53.622;9.958;2023-06-10T00:28:29;0.83;;;0.80;;
8151;SDS011;4117;53.622;9.958;2023-06-10T00:30:56;0.90;;;0.80;;
8151;SDS011;4117;53.622;9.958;2023-06-10T00:33:23;1.23;;;1.10;;
8151;SDS011;4117;53.622;9.958;2023-06-10T00:35:50;2.03;;;1.10;;
8151;SDS011;4117;53.622;9.958;2023-06-10T00:38:18;5.30;;;1.30;;
8151;SDS011;4117;53.622;9.958;2023-06-10T00:40:45;2.23;;;1.00;;
8151;SDS011;4117;53.622;9.958;2023-06-10T00:43:12;1.20;;;0.80;;
8151;SDS011;4117;53.622;9.958;2023-06-10T00:45:39;1.90;;;0.90;;
8151;SDS011;4117;53.622;9.958;2023-06-10T00:48:06;1.20;;;0.80;;
8151;SDS011;4117;53.622;9.958;2023-06-10T00:50:33;2.70;;;0.80;;
8151;SDS011;4117;53.622;9.958;2023-06-10T00:53:04;2.37;;;1.00;;
8151;SDS011;4117;53.622;9.958;2023-06-10T00:55:33;5.10;;;0.90;;
8151;SDS011;4117;53.622;9.958;2023-06-10T00:58:00;3.50;;;0.90;;
8151;SDS011;4117;53.622;9.958;2023-06-10T01:00:29;0.97;;;0.93;;
8151;SDS011;4117;53.622;9.958;2023-06-10T01:02:56;1.03;;;0.90;;
8151;SDS011;4117;53.622;9.958;2023-06-10T01:05:23;0.67;;;0.60;;
8151;SDS011;4117;53.622;9.958;2023-06-10T01:07:53;2.03;;;1.00;;
8151;SDS011;4117;53.622;9.958;2023-06-10T01:10:28;1.33;;;0.80;;
8151;SDS011;4117;53.622;9.958;2023-06-10T01:13:05;1.53;;;0.90;;
8151;SDS011;4117;53.622;9.958;2023-06-10T01:15:37;0.80;;;0.63;;
8151;SDS011;4117;53.622;9.958;2023-06-10T01:18:05;1.43;;;0.90;;
8151;SDS011;4117;53.622;9.958;2023-06-10T01:20:34;1.70;;;1.10;;
8151;SDS011;4117;53.622;9.958;2023-06-10T01:23:07;0.90;;;0.77;;
8151;SDS011;4117;53.622;9.958;2023-06-10T01:25:36;2.60;;;0.67;;
8151;SDS011;4117;53.622;9.958;2023-06-10T01:28:07;4.60;;;1.03;;
8151;SDS011;4117;53.622;9.958;2023-06-10T01:30:39;2.53;;;0.93;;
8151;SDS011;4117;53.622;9.958;2023-06-10T01:33:10;0.60;;;0.60;;
8151;SDS011;4117;53.622;9.958;2023-06-10T01:35:49;2.27;;;1.10;;
8151;SDS011;4117;53.622;9.958;2023-06-10T01:38:19;1.73;;;0.90;;
8151;SDS011;4117;53.622;9.958;2023-06-10T01:40:46;4.03;;;1.17;;
8151;SDS011;4117;53.622;9.958;2023-06-10T01:43:15;1.13;;;0.90;;
8151;SDS011;4117;53.622;9.958;2023-06-10T01:45:42;2.53;;;0.67;;
8151;SDS011;4117;53.622;9.958;2023-06-10T01:48:09;0.73;;;0.73;;
8151;SDS011;4117;53.622;9.958;2023-06-10T01:50:36;0.90;;;0.70;;
8151;SDS011;4117;53.622;9.958;2023-06-10T01:53:03;1.83;;;0.80;;
8151;SDS011;4117;53.622;9.958;2023-06-10T01:55:31;0.70;;;0.70;;
8151;SDS011;4117;53.622;9.958;2023-06-10T01:57:58;0.83;;;0.83;;
8151;SDS011;4117;53.622;9.958;2023-06-10T02:00:25;0.80;;;0.80;;
8151;SDS011;4117;53.622;9.958;2023-06-10T02:02:52;0.40;;;0.40;;
8151;SDS011;4117;53.622;9.958;2023-06-10T02:05:19;0.83;;;0.70;;
8151;SDS011;4117;53.622;9.958;2023-06-10T02:07:46;0.77;;;0.77;;
8151;SDS011;4117;53.622;9.958;2023-06-10T02:10:13;1.03;;;0.57;;
8151;SDS011;4117;53.622;9.958;2023-06-10T02:12:41;0.87;;;0.60;;
8151;SDS011;4117;53.622;9.958;2023-06-10T02:15:08;0.93;;;0.40;;
8151;SDS011;4117;53.622;9.958;2023-06-10T02:17:35;0.67;;;0.67;;
8151;SDS011;4117;53.622;9.958;2023-06-10T02:20:02;0.70;;;0.70;;
8151;SDS011;4117;53.622;9.958;2023-06-10T02:22:32;0.70;;;0.70;;
8151;SDS011;4117;53.622;9.958;2023-06-10T02:24:59;1.57;;;0.70;;
8151;SDS011;4117;53.622;9.958;2023-06-10T02:27:26;0.73;;;0.50;;
8151;SDS011;4117;53.622;9.958;2023-06-10T02:29:54;1.50;;;0.50;;
8151;SDS011;4117;53.622;9.958;2023-06-10T02:32:22;0.73;;;0.60;;
8151;SDS011;4117;53.622;9.958;2023-06-10T02:34:49;3.43;;;0.67;;
8151;SDS011;4117;53.622;9.958;2023-06-10T02:37:15;0.80;;;0.60;;
8151;SDS011;4117;53.622;9.958;2023-06-10T02:39:42;0.50;;;0.50;;
8151;SDS011;4117;53.622;9.958;2023-06-10T02:42:09;0.67;;;0.60;;
8151;SDS011;4117;53.622;9.958;2023-06-10T02:44:37;0.77;;;0.70;;
8151;SDS011;4117;53.622;9.958;2023-06-10T02:47:06;2.23;;;0.87;;
8151;SDS011;4117;53.622;9.958;2023-06-10T02:49:33;4.53;;;0.80;;
8151;SDS011;4117;53.622;9.958;2023-06-10T02:51:59;0.80;;;0.80;;
8151;SDS011;4117;53.622;9.958;2023-06-10T02:54:26;0.67;;;0.60;;
8151;SDS011;4117;53.622;9.958;2023-06-10T02:56:53;0.80;;;0.60;;
8151;SDS011;4117;53.622;9.958;2023-06-10T02:59:21;0.67;;;0.50;;
8151;SDS011;4117;53.622;9.958;2023-06-10T03:01:48;1.20;;;0.60;;
8151;SDS011;4117;53.622;9.958;2023-06-10T03:04:16;1.60;;;0.57;;
8151;SDS011;4117;53.622;9.958;2023-06-10T03:06:43;1.50;;;1.10;;
8151;SDS011;4117;53.622;9.958;2023-06-10T03:09:12;0.30;;;0.30;;
8151;SDS011;4117;53.622;9.958;2023-06-10T03:11:39;0.70;;;0.70;;
8151;SDS011;4117;53.622;9.958;2023-06-10T03:14:06;0.83;;;0.70;;
8151;SDS011;4117;53.622;9.958;2023-06-10T03:16:33;0.70;;;0.70;;
8151;SDS011;4117;53.622;9.958;2023-06-10T03:19:00;0.77;;;0.57;;
8151;SDS011;4117;53.622;9.958;2023-06-10T03:21:28;0.90;;;0.70;;
8151;SDS011;4117;53.622;9.958;2023-06-10T03:23:55;0.97;;;0.50;;
8151;SDS011;4117;53.622;9.958;2023-06-10T03:26:22;0.63;;;0.63;;
8151;SDS011;4117;53.622;9.958;2023-06-10T03:28:49;1.20;;;0.60;;
8151;SDS011;4117;53.622;9.958;2023-06-10T03:31:16;0.53;;;0.50;;
8151;SDS011;4117;53.622;9.958;2023-06-10T03:33:42;1.23;;;0.80;;
8151;SDS011;4117;53.622;9.958;2023-06-10T03:36:09;1.90;;;0.47;;
8151;SDS011;4117;53.622;9.958;2023-06-10T03:38:38;2.17;;;0.47;;
8151;SDS011;4117;53.622;9.958;2023-06-10T03:41:05;2.37;;;0.67;;
8151;SDS011;4117;53.622;9.958;2023-06-10T03:43:32;1.37;;;0.70;;
8151;SDS011;4117;53.622;9.958;2023-06-10T03:45:59;0.83;;;0.77;;
8151;SDS011;4117;53.622;9.958;2023-06-10T03:48:26;2.77;;;0.70;;
8151;SDS011;4117;53.622;9.958;2023-06-10T03:50:52;0.60;;;0.50;;
8151;SDS011;4117;53.622;9.958;2023-06-10T03:53:19;0.43;;;0.43;;
8151;SDS011;4117;53.622;9.958;2023-06-10T03:55:48;0.80;;;0.60;;
8151;SDS011;4117;53.622;9.958;2023-06-10T03:58:15;0.67;;;0.67;;
8151;SDS011;4117;53.622;9.958;2023-06-10T04:00:43;1.13;;;0.73;;
8151;SDS011;4117;53.622;9.958;2023-06-10T04:03:10;1.13;;;0.70;;
8151;SDS011;4117;53.622;9.958;2023-06-10T04:05:39;1.47;;;0.40;;
8151;SDS011;4117;53.622;9.958;2023-06-10T04:08:07;1.47;;;0.97;;
8151;SDS011;4117;53.622;9.958;2023-06-10T04:10:34;0.33;;;0.33;;
8151;SDS011;4117;53.622;9.958;2023-06-10T04:13:02;1.93;;;0.90;;
8151;SDS011;4117;53.622;9.958;2023-06-10T04:15:29;0.63;;;0.63;;
8151;SDS011;4117;53.622;9.958;2023-06-10T04:17:58;0.67;;;0.60;;
8151;SDS011;4117;53.622;9.958;2023-06-10T04:20:26;0.87;;;0.70;;
8151;SDS011;4117;53.622;9.958;2023-06-10T04:22:53;1.07;;;0.97;;
8151;SDS011;4117;53.622;9.958;2023-06-10T04:25:20;1.37;;;0.80;;
8151;SDS011;4117;53.622;9.958;2023-06-10T04:27:48;1.03;;;0.80;;
8151;SDS011;4117;53.622;9.958;2023-06-10T04:30:16;1.07;;;0.50;;
8151;SDS011;4117;53.622;9.958;2023-06-10T04:32:43;0.83;;;0.77;;
8151;SDS011;4117;53.622;9.958;2023-06-10T04:35:11;4.50;;;0.73;;
8151;SDS011;4117;53.622;9.958;2023-06-10T04:37:39;5.30;;;0.73;;
8151;SDS011;4117;53.622;9.958;2023-06-10T04:40:06;0.90;;;0.67;;
8151;SDS011;4117;53.622;9.958;2023-06-10T04:42:35;3.60;;;0.60;;
8151;SDS011;4117;53.622;9.958;2023-06-10T04:45:03;0.90;;;0.53;;
8151;SDS011;4117;53.622;9.958;2023-06-10T04:47:32;5.10;;;0.70;;
8151;SDS011;4117;53.622;9.958;2023-06-10T04:49:59;0.43;;;0.43;;
8151;SDS011;4117;53.622;9.958;2023-06-10T04:52:26;0.77;;;0.60;;
8151;SDS011;4117;53.622;9.958;2023-06-10T04:54:53;0.57;;;0.47;;
8151;SDS011;4117;53.622;9.958;2023-06-10T04:57:20;0.57;;;0.47;;
8151;SDS011;4117;53.622;9.958;2023-06-10T04:59:47;0.70;;;0.63;;
8151;SDS011;4117;53.622;9.958;2023-06-10T05:02:14;0.83;;;0.70;;
8151;SDS011;4117;53.622;9.958;2023-06-10T05:04:42;0.90;;;0.77;;
8151;SDS011;4117;53.622;9.958;2023-06-10T05:07:09;2.50;;;0.80;;
8151;SDS011;4117;53.622;9.958;2023-06-10T05:09:36;0.27;;;0.20;;
8151;SDS011;4117;53.622;9.958;2023-06-10T05:12:04;0.80;;;0.80;;
8151;SDS011;4117;53.622;9.958;2023-06-10T05:14:32;2.30;;;0.60;;
8151;SDS011;4117;53.622;9.958;2023-06-10T05:16:59;1.10;;;0.60;;
8151;SDS011;4117;53.622;9.958;2023-06-10T05:19:25;0.50;;;0.50;;
8151;SDS011;4117;53.622;9.958;2023-06-10T05:21:54;5.00;;;0.80;;
8151;SDS011;4117;53.622;9.958;2023-06-10T05:24:21;0.60;;;0.50;;
8151;SDS011;4117;53.622;9.958;2023-06-10T05:26:48;1.23;;;0.80;;
8151;SDS011;4117;53.622;9.958;2023-06-10T05:29:15;0.80;;;0.40;;
8151;SDS011;4117;53.622;9.958;2023-06-10T05:31:42;1.07;;;0.60;;
8151;SDS011;4117;53.622;9.958;2023-06-10T05:34:09;1.87;;;0.97;;
8151;SDS011;4117;53.622;9.958;2023-06-10T05:36:36;0.63;;;0.63;;
8151;SDS011;4117;53.622;9.958;2023-06-10T05:39:05;3.70;;;0.70;;
8151;SDS011;4117;53.622;9.958;2023-06-10T05:41:32;0.57;;;0.57;;
8151;SDS011;4117;53.622;9.958;2023-06-10T05:43:59;1.07;;;0.77;;
8151;SDS011;4117;53.622;9.958;2023-06-10T05:46:26;6.13;;;0.63;;
8151;SDS011;4117;53.622;9.958;2023-06-10T05:48:52;1.97;;;1.00;;
8151;SDS011;4117;53.622;9.958;2023-06-10T05:51:19;0.63;;;0.50;;
8151;SDS011;4117;53.622;9.958;2023-06-10T05:53:47;0.57;;;0.57;;
8151;SDS011;4117;53.622;9.958;2023-06-10T05:56:15;1.53;;;0.60;;
8151;SDS011;4117;53.622;9.958;2023-06-10T05:58:42;0.73;;;0.57;;
8151;SDS011;4117;53.622;9.958;2023-06-10T06:01:09;0.80;;;0.57;;
8151;SDS011;4117;53.622;9.958;2023-06-10T06:03:36;2.70;;;0.70;;
8151;SDS011;4117;53.622;9.958;2023-06-10T06:06:03;0.60;;;0.50;;
8151;SDS011;4117;53.622;9.958;2023-06-10T06:08:30;1.07;;;0.67;;
8151;SDS011;4117;53.622;9.958;2023-06-10T06:10:57;0.57;;;0.50;;
8151;SDS011;4117;53.622;9.958;2023-06-10T06:13:26;2.10;;;0.40;;
8151;SDS011;4117;53.622;9.958;2023-06-10T06:15:53;3.20;;;0.70;;
8151;SDS011;4117;53.622;9.958;2023-06-10T06:18:20;4.20;;;0.70;;
8151;SDS011;4117;53.622;9.958;2023-06-10T06:20:47;3.30;;;0.63;;
8151;SDS011;4117;53.622;9.958;2023-06-10T06:23:13;0.50;;;0.47;;
8151;SDS011;4117;53.622;9.958;2023-06-10T06:25:40;0.50;;;0.43;;
8151;SDS011;4117;53.622;9.958;2023-06-10T06:28:10;1.43;;;0.60;;
8151;SDS011;4117;53.622;9.958;2023-06-10T06:30:38;0.63;;;0.53;;
8151;SDS011;4117;53.622;9.958;2023-06-10T06:33:05;1.83;;;0.80;;
8151;SDS011;4117;53.622;9.958;2023-06-10T06:35:32;0.93;;;0.53;;
8151;SDS011;4117;53.622;9.958;2023-06-10T06:37:59;0.87;;;0.63;;
8151;SDS011;4117;53.622;9.958;2023-06-10T06:40:26;1.67;;;0.63;;
8151;SDS011;4117;53.622;9.958;2023-06-10T06:42:53;0.60;;;0.60;;
8151;SDS011;4117;53.622;9.958;2023-06-10T06:45:20;2.53;;;0.70;;
8151;SDS011;4117;53.622;9.958;2023-06-10T06:47:49;2.77;;;1.10;;
8151;SDS011;4117;53.622;9.958;2023-06-10T06:50:16;0.70;;;0.60;;
8151;SDS011;4117;53.622;9.958;2023-06-10T06:52:43;1.23;;;0.70;;
8151;SDS011;4117;53.622;9.958;2023-06-10T06:55:10;3.70;;;0.77;;
8151;SDS011;4117;53.622;9.958;2023-06-10T06:57:37;0.70;;;0.70;;
8151;SDS011;4117;53.622;9.958;2023-06-10T07:00:05;0.60;;;0.60;;
8151;SDS011;4117;53.622;9.958;2023-06-10T07:02:33;6.00;;;0.90;;
8151;SDS011;4117;53.622;9.958;2023-06-10T07:05:02;1.40;;;0.83;;
8151;SDS011;4117;53.622;9.958;2023-06-10T07:07:29;0.97;;;0.60;;
8151;SDS011;4117;53.622;9.958;2023-06-10T07:09:56;1.53;;;0.80;;
8151;SDS011;4117;53.622;9.958;2023-06-10T07:12:26;2.80;;;0.83;;
8151;SDS011;4117;53.622;9.958;2023-06-10T07:14:53;2.00;;;0.70;;
8151;SDS011;4117;53.622;9.958;2023-06-10T07:17:20;2.83;;;0.60;;
8151;SDS011;4117;53.622;9.958;2023-06-10T07:19:47;1.57;;;0.70;;
8151;SDS011;4117;53.622;9.958;2023-06-10T07:22:16;1.27;;;0.63;;
8151;SDS011;4117;53.622;9.958;2023-06-10T07:24:43;4.67;;;1.07;;
8151;SDS011;4117;53.622;9.958;2023-06-10T07:27:10;1.13;;;1.00;;
8151;SDS011;4117;53.622;9.958;2023-06-10T07:29:37;1.87;;;1.07;;
8151;SDS011;4117;53.622;9.958;2023-06-10T07:32:04;2.13;;;1.00;;
8151;SDS011;4117;53.622;9.958;2023-06-10T07:34:31;2.70;;;0.57;;
8151;SDS011;4117;53.622;9.958;2023-06-10T07:36:58;0.80;;;0.80;;
8151;SDS011;4117;53.622;9.958;2023-06-10T07:39:27;1.37;;;0.67;;
8151;SDS011;4117;53.622;9.958;2023-06-10T07:41:54;3.80;;;0.90;;
8151;SDS011;4117;53.622;9.958;2023-06-10T07:44:22;1.00;;;0.90;;
8151;SDS011;4117;53.622;9.958;2023-06-10T07:46:49;0.87;;;0.77;;
8151;SDS011;4117;53.622;9.958;2023-06-10T07:49:16;3.47;;;0.90;;
8151;SDS011;4117;53.622;9.958;2023-06-10T07:51:43;1.27;;;0.70;;
8151;SDS011;4117;53.622;9.958;2023-06-10T07:54:10;2.83;;;0.60;;
8151;SDS011;4117;53.622;9.958;2023-06-10T07:56:39;1.80;;;0.93;;
8151;SDS011;4117;53.622;9.958;2023-06-10T07:59:06;1.43;;;0.90;;
8151;SDS011;4117;53.622;9.958;2023-06-10T08:01:33;4.70;;;1.63;;
8151;SDS011;4117;53.622;9.958;2023-06-10T08:04:03;0.50;;;0.50;;
8151;SDS011;4117;53.622;9.958;2023-06-10T08:06:30;0.67;;;0.60;;
8151;SDS011;4117;53.622;9.958;2023-06-10T08:08:57;0.80;;;0.70;;
8151;SDS011;4117;53.622;9.958;2023-06-10T08:11:25;1.07;;;0.93;;
8151;SDS011;4117;53.622;9.958;2023-06-10T08:13:54;1.00;;;0.73;;
8151;SDS011;4117;53.622;9.958;2023-06-10T08:16:21;1.47;;;0.97;;
8151;SDS011;4117;53.622;9.958;2023-06-10T08:18:48;0.80;;;0.63;;
8151;SDS011;4117;53.622;9.958;2023-06-10T08:21:15;1.00;;;0.90;;
8151;SDS011;4117;53.622;9.958;2023-06-10T08:23:42;1.70;;;1.00;;
8151;SDS011;4117;53.622;9.958;2023-06-10T08:26:10;2.60;;;1.00;;
8151;SDS011;4117;53.622;9.958;2023-06-10T08:28:37;2.30;;;1.10;;
8151;SDS011;4117;53.622;9.958;2023-06-10T08:31:06;0.93;;;0.83;;
8151;SDS011;4117;53.622;9.958;2023-06-10T08:33:32;0.87;;;0.80;;
8151;SDS011;4117;53.622;9.958;2023-06-10T08:36:02;1.10;;;0.83;;
8151;SDS011;4117;53.622;9.958;2023-06-10T08:38:29;1.90;;;0.80;;
8151;SDS011;4117;53.622;9.958;2023-06-10T08:40:56;2.90;;;0.90;;
8151;SDS011;4117;53.622;9.958;2023-06-10T08:43:28;1.30;;;0.67;;
8151;SDS011;4117;53.622;9.958;2023-06-10T08:46:00;2.63;;;1.10;;
8151;SDS011;4117;53.622;9.958;2023-06-10T08:48:30;1.00;;;0.70;;
8151;SDS011;4117;53.622;9.958;2023-06-10T08:50:57;5.00;;;1.10;;
8151;SDS011;4117;53.622;9.958;2023-06-10T08:53:27;1.67;;;1.00;;
8151;SDS011;4117;53.622;9.958;2023-06-10T08:55:58;2.00;;;0.67;;
8151;SDS011;4117;53.622;9.958;2023-06-10T08:58:28;1.33;;;0.77;;
8151;SDS011;4117;53.622;9.958;2023-06-10T09:00:55;1.20;;;0.83;;
8151;SDS011;4117;53.622;9.958;2023-06-10T09:03:24;1.00;;;0.90;;
8151;SDS011;4117;53.622;9.958;2023-06-10T09:05:53;1.27;;;1.00;;
8151;SDS011;4117;53.622;9.958;2023-06-10T09:08:23;4.07;;;1.13;;
8151;SDS011;4117;53.622;9.958;2023-06-10T09:10:50;0.77;;;0.67;;
8151;SDS011;4117;53.622;9.958;2023-06-10T09:13:17;2.63;;;1.10;;
8151;SDS011;4117;53.622;9.958;2023-06-10T09:15:44;1.30;;;1.00;;
8151;SDS011;4117;53.622;9.958;2023-06-10T09:18:12;1.00;;;0.70;;
8151;SDS011;4117;53.622;9.958;2023-06-10T09:20:39;1.10;;;0.90;;
8151;SDS011;4117;53.622;9.958;2023-06-10T09:23:09;1.37;;;1.00;;
8151;SDS011;4117;53.622;9.958;2023-06-10T09:25:37;1.60;;;1.00;;
8151;SDS011;4117;53.622;9.958;2023-06-10T09:28:04;1.13;;;1.00;;
8151;SDS011;4117;53.622;9.958;2023-06-10T09:30:38;0.80;;;0.80;;
8151;SDS011;4117;53.622;9.958;2023-06-10T09:33:09;1.70;;;1.17;;
8151;SDS011;4117;53.622;9.958;2023-06-10T09:35:37;1.57;;;0.90;;
8151;SDS011;4117;53.622;9.958;2023-06-10T09:38:13;1.00;;;0.80;;
8151;SDS011;4117;53.622;9.958;2023-06-10T09:40:48;1.90;;;1.13;;
8151;SDS011;4117;53.622;9.958;2023-06-10T09:43:17;1.03;;;0.93;;
8151;SDS011;4117;53.622;9.958;2023-06-10T09:45:44;2.13;;;1.00;;
8151;SDS011;4117;53.622;9.958;2023-06-10T09:48:13;1.17;;;0.87;;
8151;SDS011;4117;53.622;9.958;2023-06-10T09:50:41;2.43;;;0.93;;
8151;SDS011;4117;53.622;9.958;2023-06-10T09:53:08;1.30;;;0.97;;
8151;SDS011;4117;53.622;9.958;2023-06-10T09:55:38;2.23;;;0.83;;
8151;SDS011;4117;53.622;9.958;2023-06-10T09:58:06;3.33;;;1.20;;
8151;SDS011;4117;53.622;9.958;2023-06-10T10:00:33;3.23;;;0.90;;
8151;SDS011;4117;53.622;9.958;2023-06-10T10:03:00;1.67;;;0.90;;
8151;SDS011;4117;53.622;9.958;2023-06-10T10:05:28;3.57;;;1.20;;
8151;SDS011;4117;53.622;9.958;2023-06-10T10:07:56;2.17;;;0.97;;
8151;SDS011;4117;53.622;9.958;2023-06-10T10:10:23;2.30;;;1.50;;
8151;SDS011;4117;53.622;9.958;2023-06-10T10:12:53;1.63;;;1.13;;
8151;SDS011;4117;53.622;9.958;2023-06-10T10:15:22;1.07;;;0.97;;
8151;SDS011;4117;53.622;9.958;2023-06-10T10:17:52;9.97;;;1.20;;
8151;SDS011;4117;53.622;9.958;2023-06-10T10:20:24;3.00;;;1.30;;
8151;SDS011;4117;53.622;9.958;2023-06-10T10:22:56;1.67;;;1.10;;
8151;SDS011;4117;53.622;9.958;2023-06-10T10:25:25;2.93;;;1.20;;
8151;SDS011;4117;53.622;9.958;2023-06-10T10:27:56;2.27;;;1.20;;
8151;SDS011;4117;53.622;9.958;2023-06-10T10:30:26;4.53;;;1.33;;
8151;SDS011;4117;53.622;9.958;2023-06-10T10:32:57;3.80;;;1.30;;
8151;SDS011;4117;53.622;9.958;2023-06-10T10:35:26;1.27;;;1.00;;
8151;SDS011;4117;53.622;9.958;2023-06-10T10:37:54;1.37;;;1.03;;
8151;SDS011;4117;53.622;9.958;2023-06-10T10:40:21;2.10;;;0.90;;
8151;SDS011;4117;53.622;9.958;2023-06-10T10:42:49;1.77;;;0.97;;
8151;SDS011;4117;53.622;9.958;2023-06-10T10:45:18;2.60;;;1.10;;
8151;SDS011;4117;53.622;9.958;2023-06-10T10:47:48;1.10;;;1.00;;
8151;SDS011;4117;53.622;9.958;2023-06-10T10:50:19;1.20;;;1.10;;
8151;SDS011;4117;53.622;9.958;2023-06-10T10:52:53;1.30;;;0.90;;
8151;SDS011;4117;53.622;9.958;2023-06-10T10:55:21;2.40;;;1.27;;
8151;SDS011;4117;53.622;9.958;2023-06-10T10:57:55;2.97;;;0.97;;
8151;SDS011;4117;53.622;9.958;2023-06-10T11:00:31;6.40;;;1.63;;
8151;SDS011;4117;53.622;9.958;2023-06-10T11:02:59;1.50;;;1.10;;
8151;SDS011;4117;53.622;9.958;2023-06-10T11:05:31;2.13;;;1.47;;
8151;SDS011;4117;53.622;9.958;2023-06-10T11:08:02;1.33;;;1.07;;
8151;SDS011;4117;53.622;9.958;2023-06-10T11:10:30;1.97;;;0.90;;
8151;SDS011;4117;53.622;9.958;2023-06-10T11:12:57;2.47;;;1.10;;
8151;SDS011;4117;53.622;9.958;2023-06-10T11:15:25;1.13;;;1.00;;
8151;SDS011;4117;53.622;9.958;2023-06-10T11:18:15;3.10;;;1.20;;
8151;SDS011;4117;53.622;9.958;2023-06-10T11:20:59;3.43;;;1.10;;
8151;SDS011;4117;53.622;9.958;2023-06-10T11:23:32;1.87;;;1.00;;
8151;SDS011;4117;53.622;9.958;2023-06-10T11:26:29;1.30;;;1.13;;
8151;SDS011;4117;53.622;9.958;2023-06-10T11:29:03;3.00;;;1.10;;
8151;SDS011;4117;53.622;9.958;2023-06-10T11:31:35;1.67;;;1.17;;
8151;SDS011;4117;53.622;9.958;2023-06-10T11:34:07;2.00;;;1.47;;
8151;SDS011;4117;53.622;9.958;2023-06-10T11:36:36;1.40;;;1.10;;
8151;SDS011;4117;53.622;9.958;2023-06-10T11:39:05;2.03;;;0.90;;
8151;SDS011;4117;53.622;9.958;2023-06-10T11:41:34;1.30;;;0.90;;
8151;SDS011;4117;53.622;9.958;2023-06-10T11:44:03;2.83;;;1.00;;
8151;SDS011;4117;53.622;9.958;2023-06-10T11:46:33;2.00;;;1.17;;
8151;SDS011;4117;53.622;9.958;2023-06-10T11:49:00;4.60;;;1.30;;
8151;SDS011;4117;53.622;9.958;2023-06-10T11:51:31;1.60;;;1.37;;
8151;SDS011;4117;53.622;9.958;2023-06-10T11:54:00;2.17;;;1.63;;
8151;SDS011;4117;53.622;9.958;2023-06-10T11:56:28;4.43;;;1.40;;
8151;SDS011;4117;53.622;9.958;2023-06-10T11:58:56;1.87;;;1.10;;
8151;SDS011;4117;53.622;9.958;2023-06-10T12:01:26;2.90;;;1.53;;
8151;SDS011;4117;53.622;9.958;2023-06-10T12:03:56;2.53;;;1.33;;
8151;SDS011;4117;53.622;9.958;2023-06-10T12:06:27;2.50;;;1.40;;
8151;SDS011;4117;53.622;9.958;2023-06-10T12:09:06;2.37;;;1.23;;
8151;SDS011;4117;53.622;9.958;2023-06-10T12:11:33;2.33;;;1.43;;
8151;SDS011;4117;53.622;9.958;2023-06-10T12:14:01;2.63;;;1.40;;
8151;SDS011;4117;53.622;9.958;2023-06-10T12:16:29;1.40;;;1.23;;
8151;SDS011;4117;53.622;9.958;2023-06-10T12:19:00;3.07;;;1.40;;
8151;SDS011;4117;53.622;9.958;2023-06-10T12:21:28;2.67;;;1.50;;
8151;SDS011;4117;53.622;9.958;2023-06-10T12:24:01;6.60;;;2.00;;
8151;SDS011;4117;53.622;9.958;2023-06-10T12:26:36;6.23;;;1.70;;
8151;SDS011;4117;53.622;9.958;2023-06-10T12:29:20;2.50;;;1.40;;
8151;SDS011;4117;53.622;9.958;2023-06-10T12:31:56;1.23;;;1.13;;
8151;SDS011;4117;53.622;9.958;2023-06-10T12:34:28;1.63;;;1.27;;
8151;SDS011;4117;53.622;9.958;2023-06-10T12:36:59;2.17;;;1.13;;
8151;SDS011;4117;53.622;9.958;2023-06-10T12:39:28;1.57;;;1.20;;
8151;SDS011;4117;53.622;9.958;2023-06-10T12:41:55;2.27;;;1.10;;
8151;SDS011;4117;53.622;9.958;2023-06-10T12:44:28;2.83;;;1.30;;
8151;SDS011;4117;53.622;9.958;2023-06-10T12:46:56;1.70;;;1.10;;
8151;SDS011;4117;53.622;9.958;2023-06-10T12:49:23;2.40;;;1.20;;
8151;SDS011;4117;53.622;9.958;2023-06-10T12:51:51;2.80;;;1.00;;
8151;SDS011;4117;53.622;9.958;2023-06-10T12:54:18;1.73;;;1.20;;
8151;SDS011;4117;53.622;9.958;2023-06-10T12:56:46;4.03;;;1.20;;
8151;SDS011;4117;53.622;9.958;2023-06-10T12:59:13;2.77;;;1.40;;
8151;SDS011;4117;53.622;9.958;2023-06-10T13:01:40;4.43;;;1.60;;
8151;SDS011;4117;53.622;9.958;2023-06-10T13:04:08;7.10;;;1.30;;
8151;SDS011;4117;53.622;9.958;2023-06-10T13:06:35;1.87;;;1.03;;
8151;SDS011;4117;53.622;9.958;2023-06-10T13:09:04;3.73;;;1.63;;
8151;SDS011;4117;53.622;9.958;2023-06-10T13:11:33;3.80;;;1.30;;
8151;SDS011;4117;53.622;9.958;2023-06-10T13:14:02;1.80;;;1.30;;
8151;SDS011;4117;53.622;9.958;2023-06-10T13:16:31;2.20;;;1.20;;
8151;SDS011;4117;53.622;9.958;2023-06-10T13:18:58;1.70;;;1.27;;
8151;SDS011;4117;53.622;9.958;2023-06-10T13:21:25;1.63;;;1.20;;
8151;SDS011;4117;53.622;9.958;2023-06-10T13:23:52;1.73;;;1.30;;
8151;SDS011;4117;53.622;9.958;2023-06-10T13:26:19;2.33;;;1.00;;
8151;SDS011;4117;53.622;9.958;2023-06-10T13:28:46;1.37;;;1.27;;
8151;SDS011;4117;53.622;9.958;2023-06-10T13:31:15;2.23;;;1.43;;
8151;SDS011;4117;53.622;9.958;2023-06-10T13:33:42;5.10;;;1.67;;
8151;SDS011;4117;53.622;9.958;2023-06-10T13:36:09;1.63;;;1.13;;
8151;SDS011;4117;53.622;9.958;2023-06-10T13:38:37;2.13;;;1.13;;
8151;SDS011;4117;53.622;9.958;2023-06-10T13:41:04;1.87;;;1.20;;
8151;SDS011;4117;53.622;9.958;2023-06-10T13:43:31;1.77;;;1.10;;
8151;SDS011;4117;53.622;9.958;2023-06-10T13:45:58;1.63;;;1.13;;
8151;SDS011;4117;53.622;9.958;2023-06-10T13:48:27;2.33;;;1.20;;
8151;SDS011;4117;53.622;9.958;2023-06-10T13:50:54;1.33;;;1.20;;
8151;SDS011;4117;53.622;9.958;2023-06-10T13:53:21;1.17;;;0.90;;
8151;SDS011;4117;53.622;9.958;2023-06-10T13:55:48;1.53;;;1.23;;
8151;SDS011;4117;53.622;9.958;2023-06-10T13:58:15;1.50;;;0.97;;
8151;SDS011;4117;53.622;9.958;2023-06-10T14:00:42;2.03;;;1.17;;
8151;SDS011;4117;53.622;9.958;2023-06-10T14:03:10;1.13;;;1.00;;
8151;SDS011;4117;53.622;9.958;2023-06-10T14:05:38;1.50;;;1.00;;
8151;SDS011;4117;53.622;9.958;2023-06-10T14:08:05;1.10;;;1.00;;
8151;SDS011;4117;53.622;9.958;2023-06-10T14:10:32;2.60;;;1.10;;
8151;SDS011;4117;53.622;9.958;2023-06-10T14:12:59;1.43;;;0.97;;
8151;SDS011;4117;53.622;9.958;2023-06-10T14:15:26;3.80;;;1.10;;
8151;SDS011;4117;53.622;9.958;2023-06-10T14:17:53;1.20;;;1.10;;
8151;SDS011;4117;53.622;9.958;2023-06-10T14:20:20;2.10;;;1.00;;
8151;SDS011;4117;53.622;9.958;2023-06-10T14:22:49;1.63;;;1.10;;
8151;SDS011;4117;53.622;9.958;2023-06-10T14:25:16;4.50;;;1.20;;
8151;SDS011;4117;53.622;9.958;2023-06-10T14:27:44;1.33;;;1.03;;
8151;SDS011;4117;53.622;9.958;2023-06-10T14:30:12;1.30;;;1.10;;
8151;SDS011;4117;53.622;9.958;2023-06-10T14:32:39;2.53;;;1.30;;
8151;SDS011;4117;53.622;9.958;2023-06-10T14:35:06;1.40;;;1.20;;
8151;SDS011;4117;53.622;9.958;2023-06-10T14:37:33;2.10;;;1.10;;
8151;SDS011;4117;53.622;9.958;2023-06-10T14:40:02;2.40;;;1.40;;
8151;SDS011;4117;53.622;9.958;2023-06-10T14:42:30;2.43;;;1.13;;
8151;SDS011;4117;53.622;9.958;2023-06-10T14:44:57;2.00;;;1.20;;
8151;SDS011;4117;53.622;9.958;2023-06-10T14:47:24;2.60;;;1.00;;
8151;SDS011;4117;53.622;9.958;2023-06-10T14:49:51;3.53;;;0.97;;
8151;SDS011;4117;53.622;9.958;2023-06-10T14:52:18;2.87;;;1.40;;
8151;SDS011;4117;53.622;9.958;2023-06-10T14:54:45;1.70;;;1.10;;
8151;SDS011;4117;53.622;9.958;2023-06-10T14:57:13;2.40;;;1.37;;
8151;SDS011;4117;53.622;9.958;2023-06-10T14:59:40;3.37;;;1.20;;
8151;SDS011;4117;53.622;9.958;2023-06-10T15:02:07;1.33;;;1.17;;
8151;SDS011;4117;53.622;9.958;2023-06-10T15:04:34;8.17;;;1.40;;
8151;SDS011;4117;53.622;9.958;2023-06-10T15:07:01;1.20;;;1.00;;
8151;SDS011;4117;53.622;9.958;2023-06-10T15:09:28;1.33;;;1.20;;
8151;SDS011;4117;53.622;9.958;2023-06-10T15:11:55;4.33;;;1.20;;
8151;SDS011;4117;53.622;9.958;2023-06-10T15:14:23;3.83;;;1.40;;
8151;SDS011;4117;53.622;9.958;2023-06-10T15:16:50;1.77;;;1.17;;
8151;SDS011;4117;53.622;9.958;2023-06-10T15:19:17;4.90;;;1.30;;
8151;SDS011;4117;53.622;9.958;2023-06-10T15:21:45;1.03;;;0.87;;